createdAt,value
2019-05-06T00:01:58.484Z,10.73
2019-05-06T00:04:28.394Z,7.60
2019-05-06T00:06:58.152Z,8.03
2019-05-06T00:09:28.172Z,14.17
2019-05-06T00:11:58.127Z,12.77
2019-05-06T00:14:28.193Z,11.53
2019-05-06T00:16:58.720Z,8.90
2019-05-06T00:19:28.619Z,9.77
2019-05-06T00:21:58.494Z,6.67
2019-05-06T00:24:34.777Z,8.33
2019-05-06T00:27:14.159Z,10.40
2019-05-06T00:29:46.802Z,8.80
2019-05-06T00:32:16.360Z,6.70
2019-05-06T00:34:46.012Z,15.90
2019-05-06T00:37:15.822Z,11.88
2019-05-06T00:40:04.680Z,9.87
2019-05-06T00:42:36.880Z,8.97
2019-05-06T00:45:07.761Z,11.80
2019-05-06T00:47:37.413Z,8.10
2019-05-06T00:50:07.464Z,12.60
2019-05-06T00:52:37.651Z,10.20
2019-05-06T00:55:07.520Z,13.77
2019-05-06T00:57:46.291Z,12.00
2019-05-06T01:00:24.232Z,10.08
2019-05-06T01:02:54.301Z,9.23
2019-05-06T01:05:24.547Z,15.30
2019-05-06T01:07:54.983Z,9.57
2019-05-06T01:10:25.010Z,10.53
2019-05-06T01:13:00.430Z,6.80
2019-05-06T01:15:30.839Z,10.15
2019-05-06T01:18:00.643Z,15.37
2019-05-06T01:20:30.534Z,12.67
2019-05-06T01:23:00.262Z,8.35
2019-05-06T01:25:30.949Z,9.57
2019-05-06T01:28:01.069Z,10.63
2019-05-06T01:30:30.935Z,10.07
2019-05-06T01:33:00.709Z,15.77
2019-05-06T01:35:30.758Z,10.40
2019-05-06T01:38:17.972Z,12.77
2019-05-06T01:41:05.508Z,16.23
2019-05-06T01:43:35.580Z,13.33
2019-05-06T01:46:05.317Z,15.33
2019-05-06T01:48:50.124Z,14.87
2019-05-06T01:51:20.969Z,17.03
2019-05-06T01:53:51.392Z,12.07
2019-05-06T01:56:21.155Z,15.60
2019-05-06T01:58:50.927Z,13.17
2019-05-06T02:01:20.573Z,14.98
2019-05-06T02:03:50.339Z,13.83
2019-05-06T02:06:20.075Z,12.40
2019-05-06T02:08:49.823Z,13.00
2019-05-06T02:11:19.445Z,9.77
2019-05-06T02:13:49.117Z,15.50
2019-05-06T02:16:18.749Z,14.50
2019-05-06T02:18:48.457Z,17.45
2019-05-06T02:21:26.429Z,12.17
2019-05-06T02:24:00.684Z,10.77
2019-05-06T02:26:30.370Z,15.37
2019-05-06T02:29:04.146Z,9.73
2019-05-06T02:31:56.632Z,14.40
2019-05-06T02:34:54.632Z,16.07
2019-05-06T02:37:28.238Z,16.73
2019-05-06T02:39:57.975Z,11.90
2019-05-06T02:42:27.727Z,13.60
2019-05-06T02:44:57.389Z,13.13
2019-05-06T02:47:43.104Z,11.00
2019-05-06T02:50:15.639Z,13.07
2019-05-06T02:52:45.376Z,13.57
2019-05-06T02:55:15.246Z,9.67
2019-05-06T02:57:45.148Z,16.77
2019-05-06T03:00:17.570Z,15.28
2019-05-06T03:02:48.353Z,14.27
2019-05-06T03:05:19.494Z,16.57
2019-05-06T03:07:49.117Z,19.37
2019-05-06T03:10:18.820Z,17.03
2019-05-06T03:12:48.534Z,16.13
2019-05-06T03:15:18.278Z,13.20
2019-05-06T03:17:47.987Z,19.23
2019-05-06T03:20:35.952Z,14.07
2019-05-06T03:23:08.130Z,15.57
2019-05-06T03:25:43.701Z,11.93
2019-05-06T03:28:13.283Z,13.95
2019-05-06T03:30:45.937Z,13.40
2019-05-06T03:33:38.346Z,14.93
2019-05-06T03:36:00.569Z,15.63
2019-05-06T03:38:17.594Z,16.55
2019-05-06T03:40:47.265Z,13.73
2019-05-06T03:43:16.997Z,18.17
2019-05-06T03:46:05.873Z,16.27
2019-05-06T03:48:38.461Z,11.12
2019-05-06T03:51:08.404Z,15.13
2019-05-06T03:53:38.138Z,13.00
2019-05-06T03:56:07.879Z,14.87
2019-05-06T03:58:38.107Z,13.80
2019-05-06T04:01:08.473Z,17.67
2019-05-06T04:03:47.133Z,19.17
2019-05-06T04:06:13.565Z,18.52
2019-05-06T04:08:43.677Z,16.97
2019-05-06T04:11:16.446Z,14.63
2019-05-06T04:13:47.248Z,12.80
2019-05-06T04:16:30.211Z,21.07
2019-05-06T04:19:07.557Z,18.90
2019-05-06T04:21:47.684Z,15.90
2019-05-06T04:24:33.923Z,17.77
2019-05-06T04:27:22.896Z,14.07
2019-05-06T04:29:54.505Z,13.28
2019-05-06T04:32:24.350Z,13.03
2019-05-06T04:34:54.029Z,17.13
2019-05-06T04:37:24.318Z,19.60
2019-05-06T04:39:54.227Z,15.83
2019-05-06T04:42:26.972Z,21.15
2019-05-06T04:44:56.455Z,19.63
2019-05-06T04:47:27.090Z,15.40
2019-05-06T04:49:56.824Z,16.73
2019-05-06T04:52:26.544Z,21.50
2019-05-06T04:54:56.299Z,18.05
2019-05-06T04:57:26.163Z,18.13
2019-05-06T04:59:55.999Z,25.23
2019-05-06T05:02:25.979Z,15.10
2019-05-06T05:04:56.215Z,24.23
2019-05-06T05:07:25.973Z,19.73
2019-05-06T05:10:03.886Z,18.47
2019-05-06T05:12:42.654Z,21.33
2019-05-06T05:15:32.541Z,15.18
2019-05-06T05:18:13.081Z,21.20
2019-05-06T05:20:46.571Z,19.13
2019-05-06T05:23:17.418Z,16.83
2019-05-06T05:25:47.587Z,21.48
2019-05-06T05:28:17.319Z,23.20
2019-05-06T05:30:47.119Z,20.50
2019-05-06T05:33:16.903Z,17.30
2019-05-06T05:35:46.706Z,17.63
2019-05-06T05:38:16.827Z,18.57
2019-05-06T05:40:47.078Z,18.47
2019-05-06T05:43:26.605Z,21.83
2019-05-06T05:45:56.495Z,22.30
2019-05-06T05:49:02.762Z,17.50
2019-05-06T05:51:32.238Z,17.53
2019-05-06T05:54:02.386Z,16.07
2019-05-06T05:56:32.928Z,25.70
2019-05-06T05:59:03.436Z,17.12
2019-05-06T06:01:33.311Z,18.60
2019-05-06T06:04:03.362Z,17.00
2019-05-06T06:06:33.428Z,20.60
2019-05-06T06:09:03.324Z,15.67
2019-05-06T06:11:42.077Z,16.33
2019-05-06T06:14:33.027Z,15.03
2019-05-06T06:17:24.043Z,20.93
2019-05-06T06:19:59.118Z,16.63
2019-05-06T06:22:32.920Z,17.45
2019-05-06T06:25:04.246Z,15.10
2019-05-06T06:27:48.575Z,18.33
2019-05-06T06:30:22.043Z,19.03
2019-05-06T06:32:52.818Z,15.70
2019-05-06T06:35:32.408Z,16.67
2019-05-06T06:38:14.504Z,19.90
2019-05-06T06:40:44.290Z,15.90
2019-05-06T06:43:18.600Z,24.77
2019-05-06T06:45:48.378Z,28.40
2019-05-06T06:48:20.071Z,22.98
2019-05-06T06:50:49.750Z,13.03
2019-05-06T06:53:19.402Z,17.77
2019-05-06T06:55:49.042Z,15.73
2019-05-06T06:58:32.190Z,18.20
2019-05-06T07:01:28.682Z,18.05
2019-05-06T07:04:10.473Z,15.20
2019-05-06T07:06:45.186Z,21.17
2019-05-06T07:09:14.882Z,13.93
2019-05-06T07:11:44.649Z,14.33
2019-05-06T07:14:14.321Z,15.98
2019-05-06T07:16:44.093Z,16.90
2019-05-06T07:19:15.861Z,12.53
2019-05-06T07:21:54.831Z,18.07
2019-05-06T07:24:26.347Z,14.07
2019-05-06T07:27:03.046Z,18.37
2019-05-06T07:29:32.987Z,15.53
2019-05-06T07:32:02.842Z,14.93
2019-05-06T07:34:33.248Z,14.03
2019-05-06T07:37:03.596Z,19.73
2019-05-06T07:39:33.536Z,16.30
2019-05-06T07:42:06.576Z,16.95
2019-05-06T07:45:12.430Z,12.30
2019-05-06T07:47:54.121Z,14.43
2019-05-06T07:50:24.217Z,12.95
2019-05-06T07:53:09.946Z,15.80
2019-05-06T07:55:42.239Z,11.70
2019-05-06T07:58:13.561Z,13.20
2019-05-06T08:00:43.107Z,12.03
2019-05-06T08:03:14.075Z,10.37
2019-05-06T08:05:54.699Z,17.10
2019-05-06T08:08:15.345Z,9.37
2019-05-06T08:10:45.159Z,10.83
2019-05-06T08:13:14.832Z,10.18
2019-05-06T08:15:45.583Z,13.80
2019-05-06T08:18:16.051Z,8.88
2019-05-06T08:20:45.865Z,13.70
2019-05-06T08:23:34.655Z,11.33
2019-05-06T08:26:12.076Z,13.78
2019-05-06T08:28:40.493Z,8.53
2019-05-06T08:31:07.810Z,8.60
2019-05-06T08:33:37.488Z,9.68
2019-05-06T08:36:14.023Z,8.10
2019-05-06T08:38:57.562Z,11.28
2019-05-06T08:41:27.702Z,8.88
2019-05-06T08:43:57.631Z,7.25
2019-05-06T08:46:27.448Z,10.28
2019-05-06T08:48:57.188Z,10.80
2019-05-06T08:51:34.237Z,7.03
2019-05-06T08:54:08.315Z,16.07
2019-05-06T08:56:38.159Z,10.23
2019-05-06T08:59:08.870Z,11.50
2019-05-06T09:01:58.654Z,11.13
2019-05-06T09:04:29.116Z,11.45
2019-05-06T09:06:58.885Z,11.90
2019-05-06T09:09:28.601Z,10.20
2019-05-06T09:11:59.084Z,10.40
2019-05-06T09:14:32.425Z,7.90
2019-05-06T09:17:02.881Z,10.17
2019-05-06T09:19:33.309Z,8.10
2019-05-06T09:22:03.007Z,9.95
2019-05-06T09:24:33.781Z,8.77
2019-05-06T09:27:22.630Z,6.53
2019-05-06T09:29:59.255Z,6.87
2019-05-06T09:32:36.285Z,10.20
2019-05-06T09:35:07.138Z,8.20
2019-05-06T09:37:37.119Z,8.20
2019-05-06T09:40:08.018Z,7.20
2019-05-06T09:42:37.702Z,4.78
2019-05-06T09:45:08.170Z,5.58
2019-05-06T09:48:03.670Z,6.45
2019-05-06T09:50:39.822Z,4.70
2019-05-06T09:53:14.158Z,5.92
2019-05-06T09:55:53.054Z,8.15
2019-05-06T09:58:23.136Z,7.15
2019-05-06T10:00:54.543Z,4.50
2019-05-06T10:03:24.250Z,6.30
2019-05-06T10:05:53.974Z,6.83
2019-05-06T10:08:23.806Z,7.63
2019-05-06T10:10:59.494Z,7.10
2019-05-06T10:13:25.045Z,5.93
2019-05-06T10:15:57.533Z,6.27
2019-05-06T10:18:26.351Z,3.72
2019-05-06T10:20:56.160Z,6.40
2019-05-06T10:23:25.857Z,6.50
2019-05-06T10:25:55.589Z,6.03
2019-05-06T10:28:52.369Z,5.43
2019-05-06T10:31:22.006Z,9.47
2019-05-06T10:34:09.449Z,6.73
2019-05-06T10:37:11.673Z,7.27
2019-05-06T10:39:34.257Z,8.07
2019-05-06T10:42:13.126Z,9.97
2019-05-06T10:44:53.989Z,7.80
2019-05-06T10:47:23.649Z,6.97
2019-05-06T10:49:53.603Z,6.60
2019-05-06T10:52:27.555Z,8.23
2019-05-06T10:54:57.300Z,8.37
2019-05-06T10:57:32.845Z,7.50
2019-05-06T11:00:02.484Z,9.00
2019-05-06T11:02:57.900Z,8.03
2019-05-06T11:05:27.797Z,7.27
2019-05-06T11:07:57.446Z,9.13
2019-05-06T11:10:33.970Z,6.73
2019-05-06T11:12:58.676Z,9.60
2019-05-06T11:15:28.472Z,10.47
2019-05-06T11:17:58.259Z,9.53
2019-05-06T11:20:28.113Z,8.37
2019-05-06T11:22:57.849Z,8.10
2019-05-06T11:25:27.623Z,9.00
2019-05-06T11:27:57.343Z,9.33
2019-05-06T11:30:45.634Z,7.80
2019-05-06T11:33:37.440Z,10.87
2019-05-06T11:36:22.982Z,8.23
2019-05-06T11:38:53.094Z,9.68
2019-05-06T11:41:23.450Z,7.63
2019-05-06T11:43:54.114Z,7.30
2019-05-06T11:46:23.784Z,10.57
2019-05-06T11:48:53.826Z,12.80
2019-05-06T11:51:25.381Z,10.30
2019-05-06T11:53:55.197Z,12.53
2019-05-06T11:56:25.009Z,14.20
2019-05-06T11:58:55.572Z,12.03
2019-05-06T12:01:28.490Z,13.00
2019-05-06T12:03:58.422Z,11.93
2019-05-06T12:06:28.130Z,8.87
2019-05-06T12:08:57.928Z,12.53
2019-05-06T12:11:27.660Z,10.47
2019-05-06T12:13:57.379Z,11.63
2019-05-06T12:16:27.040Z,10.83
2019-05-06T12:18:59.659Z,14.43
2019-05-06T12:21:28.148Z,17.07
2019-05-06T12:23:58.861Z,14.47
2019-05-06T12:26:28.800Z,13.00
2019-05-06T12:28:58.560Z,13.77
2019-05-06T12:31:28.306Z,14.67
2019-05-06T12:33:58.197Z,13.77
2019-05-06T12:36:27.853Z,13.70
2019-05-06T12:39:18.714Z,17.27
2019-05-06T12:42:06.193Z,13.30
2019-05-06T12:44:37.381Z,16.97
2019-05-06T12:47:24.514Z,15.27
2019-05-06T12:49:54.228Z,17.30
2019-05-06T12:52:24.298Z,16.40
2019-05-06T12:55:12.982Z,17.13
2019-05-06T12:57:25.625Z,17.40
2019-05-06T13:00:06.277Z,17.43
2019-05-06T13:02:36.106Z,12.60
2019-05-06T13:05:06.248Z,17.17
2019-05-06T13:07:44.630Z,14.67
2019-05-06T13:10:18.641Z,13.48
2019-05-06T13:12:54.218Z,15.90
2019-05-06T13:15:24.630Z,14.43
2019-05-06T13:17:54.251Z,14.43
2019-05-06T13:20:24.157Z,12.45
2019-05-06T13:23:08.523Z,13.40
2019-05-06T13:25:36.853Z,18.52
2019-05-06T13:28:09.360Z,11.33
2019-05-06T13:30:39.185Z,17.77
2019-05-06T13:33:20.135Z,15.87
2019-05-06T13:35:52.514Z,14.77
2019-05-06T13:38:22.396Z,11.90
2019-05-06T13:40:57.033Z,14.30
2019-05-06T13:43:43.457Z,13.03
2019-05-06T13:46:43.470Z,15.88
2019-05-06T13:49:42.854Z,13.10
2019-05-06T13:52:14.197Z,13.23
2019-05-06T13:54:43.855Z,10.68
2019-05-06T13:57:13.489Z,13.03
2019-05-06T13:59:44.278Z,13.22
2019-05-06T14:02:21.043Z,9.40
2019-05-06T14:04:52.716Z,9.87
2019-05-06T14:07:24.314Z,8.13
2019-05-06T14:09:54.259Z,9.73
2019-05-06T14:12:23.986Z,7.77
2019-05-06T14:14:55.674Z,6.37
2019-05-06T14:17:25.614Z,7.43
2019-05-06T14:19:55.582Z,6.93
2019-05-06T14:22:28.109Z,5.53
2019-05-06T14:25:12.705Z,6.50
2019-05-06T14:27:46.805Z,7.58
2019-05-06T14:30:38.895Z,8.63
2019-05-06T14:33:08.924Z,7.97
2019-05-06T14:35:38.779Z,6.83
2019-05-06T14:38:08.686Z,8.80
2019-05-06T14:40:57.478Z,5.78
2019-05-06T14:43:27.165Z,8.77
2019-05-06T14:45:56.994Z,7.97
2019-05-06T14:48:26.682Z,6.37
2019-05-06T14:50:57.427Z,7.33
2019-05-06T14:53:27.223Z,9.33
2019-05-06T14:55:58.884Z,11.97
2019-05-06T14:58:28.938Z,8.80
2019-05-06T15:00:58.789Z,10.23
2019-05-06T15:03:28.555Z,8.47
2019-05-06T15:05:58.194Z,9.60
2019-05-06T15:08:27.878Z,7.20
2019-05-06T15:10:57.671Z,10.80
2019-05-06T15:13:27.723Z,10.37
2019-05-06T15:15:57.457Z,12.90
2019-05-06T15:18:28.219Z,14.57
2019-05-06T15:21:23.584Z,13.43
2019-05-06T15:23:29.510Z,16.57
2019-05-06T15:25:59.404Z,12.00
2019-05-06T15:28:29.725Z,11.83
2019-05-06T15:31:07.318Z,14.07
2019-05-06T15:33:40.130Z,10.40
2019-05-06T15:36:16.759Z,13.30
2019-05-06T15:38:47.313Z,13.38
2019-05-06T15:41:17.068Z,15.13
2019-05-06T15:43:46.857Z,13.77
2019-05-06T15:46:17.882Z,15.70
2019-05-06T15:48:49.278Z,14.37
2019-05-06T15:51:22.317Z,12.70
2019-05-06T15:53:52.952Z,17.07
2019-05-06T15:56:23.470Z,16.10
2019-05-06T15:58:53.198Z,11.20
2019-05-06T16:01:23.531Z,11.50
2019-05-06T16:03:53.478Z,14.43
2019-05-06T16:06:23.300Z,14.20
2019-05-06T16:08:53.330Z,11.60
2019-05-06T16:11:23.006Z,11.37
2019-05-06T16:13:53.481Z,10.37
2019-05-06T16:16:23.435Z,11.27
2019-05-06T16:18:53.290Z,12.83
2019-05-06T16:21:23.113Z,13.07
2019-05-06T16:24:05.621Z,10.17
2019-05-06T16:26:35.642Z,11.47
2019-05-06T16:29:05.472Z,11.83
2019-05-06T16:31:37.656Z,13.27
2019-05-06T16:34:07.451Z,10.23
2019-05-06T16:36:37.275Z,11.47
2019-05-06T16:39:07.717Z,13.87
2019-05-06T16:41:37.428Z,15.83
2019-05-06T16:44:07.704Z,12.40
2019-05-06T16:46:37.384Z,10.43
2019-05-06T16:49:07.572Z,12.20
2019-05-06T16:51:37.414Z,13.13
2019-05-06T16:54:07.203Z,12.03
2019-05-06T16:56:44.658Z,16.37
2019-05-06T16:59:13.542Z,17.45
2019-05-06T17:01:45.101Z,12.27
2019-05-06T17:04:36.714Z,11.40
2019-05-06T17:07:06.366Z,9.67
2019-05-06T17:09:42.821Z,10.17
2019-05-06T17:12:12.939Z,10.90
2019-05-06T17:14:42.905Z,11.03
2019-05-06T17:17:12.915Z,9.50
2019-05-06T17:19:42.785Z,9.40
2019-05-06T17:22:12.555Z,8.75
2019-05-06T17:24:42.325Z,9.37
2019-05-06T17:27:12.197Z,9.33
2019-05-06T17:29:51.414Z,7.97
2019-05-06T17:32:46.270Z,9.83
2019-05-06T17:35:16.403Z,10.53
2019-05-06T17:38:11.043Z,9.90
2019-05-06T17:40:42.903Z,10.00
2019-05-06T17:43:13.071Z,9.13
2019-05-06T17:45:58.461Z,11.17
2019-05-06T17:48:42.238Z,9.83
2019-05-06T17:51:16.575Z,10.23
2019-05-06T17:53:49.252Z,7.50
2019-05-06T17:56:23.210Z,10.05
2019-05-06T17:58:53.400Z,11.07
2019-05-06T18:01:32.668Z,6.97
2019-05-06T18:04:03.119Z,8.43
2019-05-06T18:06:33.336Z,6.80
2019-05-06T18:09:03.228Z,8.80
2019-05-06T18:11:34.512Z,7.23
2019-05-06T18:14:04.492Z,8.77
2019-05-06T18:16:34.237Z,8.03
2019-05-06T18:19:04.030Z,8.18
2019-05-06T18:21:33.862Z,7.23
2019-05-06T18:24:04.126Z,7.00
2019-05-06T18:26:33.970Z,7.17
2019-05-06T18:29:03.926Z,8.33
2019-05-06T18:31:33.857Z,5.67
2019-05-06T18:34:06.345Z,10.07
2019-05-06T18:36:35.720Z,6.90
2019-05-06T18:39:09.706Z,6.80
2019-05-06T18:41:41.905Z,8.87
2019-05-06T18:44:12.034Z,8.47
2019-05-06T18:46:42.229Z,7.30
2019-05-06T18:49:13.076Z,9.27
2019-05-06T18:51:43.232Z,10.73
2019-05-06T18:54:13.205Z,8.28
2019-05-06T18:56:43.191Z,9.37
2019-05-06T18:59:13.141Z,11.73
2019-05-06T19:01:43.482Z,9.10
2019-05-06T19:04:28.269Z,9.40
2019-05-06T19:07:09.456Z,8.83
2019-05-06T19:09:47.722Z,9.33
2019-05-06T19:12:30.058Z,10.33
2019-05-06T19:14:49.278Z,9.37
2019-05-06T19:17:19.059Z,10.10
2019-05-06T19:19:51.886Z,12.47
2019-05-06T19:22:22.864Z,11.37
2019-05-06T19:24:53.919Z,12.17
2019-05-06T19:27:24.948Z,9.03
2019-05-06T19:29:54.858Z,9.83
2019-05-06T19:32:24.735Z,9.15
2019-05-06T19:34:54.748Z,8.40
2019-05-06T19:37:26.029Z,11.53
2019-05-06T19:39:55.740Z,12.20
2019-05-06T19:42:25.643Z,12.33
2019-05-06T19:44:55.631Z,10.63
2019-05-06T19:47:25.306Z,8.70
2019-05-06T19:49:55.858Z,11.25
2019-05-06T19:52:25.604Z,11.87
2019-05-06T19:54:55.508Z,12.07
2019-05-06T19:57:25.762Z,12.43
2019-05-06T19:59:55.541Z,8.60
2019-05-06T20:02:25.907Z,13.60
2019-05-06T20:05:02.962Z,15.23
2019-05-06T20:07:47.126Z,11.28
2019-05-06T20:10:36.874Z,12.47
2019-05-06T20:13:06.575Z,10.27
2019-05-06T20:15:42.250Z,11.30
2019-05-06T20:18:11.894Z,12.60
2019-05-06T20:20:42.513Z,12.63
2019-05-06T20:23:12.754Z,13.43
2019-05-06T20:25:44.722Z,15.27
2019-05-06T20:28:13.857Z,16.53
2019-05-06T20:30:43.654Z,16.70
2019-05-06T20:33:13.299Z,13.83
2019-05-06T20:35:43.456Z,12.77
2019-05-06T20:38:13.267Z,15.23
2019-05-06T20:40:43.385Z,14.45
2019-05-06T20:43:19.617Z,18.63
2019-05-06T20:45:45.693Z,16.05
2019-05-06T20:48:15.618Z,16.73
2019-05-06T20:50:45.324Z,17.62
2019-05-06T22:09:53.743Z,21.37
2019-05-06T22:12:24.916Z,19.30
2019-05-06T22:14:55.037Z,20.70
2019-05-06T22:17:26.635Z,22.17
2019-05-06T22:19:57.376Z,21.77
2019-05-06T22:22:28.809Z,21.40
2019-05-06T22:24:59.344Z,21.13
2019-05-06T22:27:29.837Z,22.60
2019-05-06T22:30:03.056Z,20.13
2019-05-06T22:32:45.649Z,21.37
2019-05-06T22:35:16.743Z,21.23
2019-05-06T22:37:46.827Z,26.13
2019-05-06T22:40:16.963Z,24.53
2019-05-06T22:42:47.631Z,24.50
2019-05-06T22:45:18.212Z,24.27
2019-05-06T22:47:47.974Z,25.48
2019-05-06T22:50:17.840Z,25.13
2019-05-06T22:52:49.402Z,22.50
2019-05-06T22:55:19.143Z,26.10
2019-05-06T22:57:48.886Z,24.80
2019-05-06T23:00:23.480Z,25.43
2019-05-06T23:02:58.007Z,23.37
2019-05-06T23:05:27.779Z,27.30
2019-05-06T23:07:57.492Z,23.63
2019-05-06T23:10:27.293Z,27.70
2019-05-06T23:12:57.122Z,26.30
2019-05-06T23:15:27.012Z,23.10
2019-05-06T23:17:56.825Z,24.67
2019-05-06T23:20:26.549Z,25.73
2019-05-06T23:22:56.375Z,23.10
2019-05-06T23:25:26.160Z,23.77
2019-05-06T23:27:56.833Z,25.50
2019-05-06T23:30:26.460Z,22.87
2019-05-06T23:32:56.646Z,24.13
2019-05-06T23:35:27.455Z,27.25
2019-05-06T23:38:33.978Z,21.53
2019-05-06T23:41:42.186Z,27.10
2019-05-06T23:44:47.635Z,27.47
2019-05-06T23:47:53.708Z,24.53
2019-05-06T23:50:59.869Z,24.53
2019-05-06T23:54:05.616Z,25.10
2019-05-06T23:56:44.180Z,25.53
2019-05-06T23:59:15.532Z,21.77
